Time;durP1;ratioP1;P1;durP2;ratioP2;P2;SDS_P1;SDS_P2;PMS_P1;PMS_P2;Temp;Humidity;BMP_temperature;BMP_pressure;BME280_temperature;BME280_humidity;BME280_pressure;Samples;Min_cycle;Max_cycle;Signal;HPM_P1;HPM_P2
2021/04/03 00:00:59;;;;;;;20.07;10.90;;;;;;;;;;777747;177;1021551;-77
2021/04/03 00:03:25;;;;;;;19.20;10.93;;;;;;;;;;775105;179;918602;-76
2021/04/03 00:05:51;;;;;;;13.53;9.50;;;;;;;;;;783977;179;919633;-77
2021/04/03 00:08:17;;;;;;;18.67;10.20;;;;;;;;;;775776;179;919552;-78
2021/04/03 00:10:44;;;;;;;19.97;10.60;;;;;;;;;;778173;179;1020771;-77
2021/04/03 00:13:10;;;;;;;17.12;10.88;;;;;;;;;;774850;179;2184175;-78
2021/04/03 00:15:36;;;;;;;21.60;12.18;;;;;;;;;;780893;179;919095;-78
2021/04/03 00:18:02;;;;;;;19.33;10.23;;;;;;;;;;776681;179;931936;-78
2021/04/03 00:20:28;;;;;;;17.15;8.80;;;;;;;;;;782406;179;918172;-78
2021/04/03 00:22:54;;;;;;;16.80;10.30;;;;;;;;;;774944;179;917616;-79
2021/04/03 00:25:20;;;;;;;17.47;11.10;;;;;;;;;;777091;179;918832;-78
2021/04/03 00:27:46;;;;;;;20.63;11.43;;;;;;;;;;777536;179;918974;-78
2021/04/03 00:30:17;;;;;;;19.30;11.37;;;;;;;;;;781529;176;919912;-78
2021/04/03 00:32:41;;;;;;;18.50;10.07;;;;;;;;;;779604;179;918829;-78
2021/04/03 00:35:08;;;;;;;19.23;11.00;;;;;;;;;;774285;179;1285839;-79
2021/04/03 00:37:33;;;;;;;19.10;10.10;;;;;;;;;;783314;179;919259;-79
2021/04/03 00:39:59;;;;;;;17.70;10.17;;;;;;;;;;776185;179;918452;-78
2021/04/03 00:42:25;;;;;;;21.33;10.97;;;;;;;;;;778080;179;919091;-78
2021/04/03 00:44:51;;;;;;;18.63;11.77;;;;;;;;;;778947;179;917549;-78
2021/04/03 00:47:17;;;;;;;21.83;11.80;;;;;;;;;;774673;179;1021780;-78
2021/04/03 00:49:43;;;;;;;18.65;10.40;;;;;;;;;;774364;179;918476;-79
2021/04/03 00:52:08;;;;;;;22.50;12.30;;;;;;;;;;777768;179;919745;-78
2021/04/03 00:54:34;;;;;;;20.50;11.27;;;;;;;;;;777371;179;919000;-78
2021/04/03 00:57:00;;;;;;;23.00;12.63;;;;;;;;;;776766;179;919449;-79
2021/04/03 00:59:26;;;;;;;19.50;10.57;;;;;;;;;;775986;179;915741;-78
2021/04/03 01:01:52;;;;;;;21.75;10.32;;;;;;;;;;781618;179;1021055;-78
2021/04/03 01:04:18;;;;;;;22.13;11.70;;;;;;;;;;779326;179;919114;-78
2021/04/03 01:06:43;;;;;;;23.20;13.15;;;;;;;;;;775223;179;918882;-79
2021/04/03 01:09:09;;;;;;;29.80;12.90;;;;;;;;;;781199;179;1021765;-78
2021/04/03 01:11:35;;;;;;;25.33;12.23;;;;;;;;;;776455;178;918774;-78
2021/04/03 01:14:01;;;;;;;20.87;11.10;;;;;;;;;;778394;179;919857;-78
2021/04/03 01:16:28;;;;;;;21.90;11.30;;;;;;;;;;781629;179;918386;-76
2021/04/03 01:18:59;;;;;;;22.52;12.57;;;;;;;;;;778254;179;918860;-78
2021/04/03 01:21:31;;;;;;;24.47;12.20;;;;;;;;;;776997;179;918996;-78
2021/04/03 01:24:12;;;;;;;19.93;12.57;;;;;;;;;;780448;179;931961;-79
2021/04/03 01:26:41;;;;;;;25.10;12.13;;;;;;;;;;774754;179;915654;-79
2021/04/03 01:29:21;;;;;;;24.10;13.00;;;;;;;;;;780913;179;914783;-78
2021/04/03 01:31:47;;;;;;;29.27;12.30;;;;;;;;;;779065;179;909964;-77
2021/04/03 01:34:13;;;;;;;17.40;9.77;;;;;;;;;;776838;179;1017865;-79
2021/04/03 01:36:39;;;;;;;19.60;11.65;;;;;;;;;;773597;179;1071033;-78
2021/04/03 01:39:07;;;;;;;24.20;11.00;;;;;;;;;;777127;179;1020023;-78
2021/04/03 01:41:33;;;;;;;18.33;10.47;;;;;;;;;;777748;176;1476020;-78
2021/04/03 01:43:58;;;;;;;22.47;10.63;;;;;;;;;;779093;179;919910;-79
2021/04/03 01:46:24;;;;;;;21.53;11.80;;;;;;;;;;776279;179;914469;-79
2021/04/03 01:48:51;;;;;;;25.80;12.40;;;;;;;;;;783567;179;914464;-79
2021/04/03 01:51:18;;;;;;;27.57;12.13;;;;;;;;;;774455;179;918976;-79
2021/04/03 01:53:45;;;;;;;18.40;10.20;;;;;;;;;;776194;179;918964;-78
2021/04/03 01:56:11;;;;;;;21.60;11.20;;;;;;;;;;781594;179;919895;-78
2021/04/03 01:58:36;;;;;;;24.30;10.90;;;;;;;;;;774464;179;918995;-78
2021/04/03 02:01:02;;;;;;;19.80;10.37;;;;;;;;;;778343;179;918716;-78
2021/04/03 02:03:28;;;;;;;25.63;12.53;;;;;;;;;;773623;179;1216103;-78
2021/04/03 02:05:54;;;;;;;20.60;9.87;;;;;;;;;;772541;180;919959;-78
2021/04/03 02:08:20;;;;;;;21.17;11.33;;;;;;;;;;776909;179;847058;-78
2021/04/03 02:10:46;;;;;;;17.08;10.57;;;;;;;;;;777404;179;919035;-78
2021/04/03 02:13:11;;;;;;;21.27;11.10;;;;;;;;;;782751;179;918079;-78
2021/04/03 02:15:37;;;;;;;19.60;11.07;;;;;;;;;;777499;179;935756;-78
2021/04/03 02:18:03;;;;;;;22.50;12.07;;;;;;;;;;778059;179;1021497;-79
2021/04/03 02:20:29;;;;;;;20.87;11.70;;;;;;;;;;781542;179;918348;-79
2021/04/03 02:22:55;;;;;;;23.47;10.53;;;;;;;;;;774236;178;1495728;-78
2021/04/03 02:25:21;;;;;;;17.37;11.82;;;;;;;;;;781235;179;919137;-79
2021/04/03 02:27:47;;;;;;;23.20;11.17;;;;;;;;;;781544;179;917609;-78
2021/04/03 02:30:15;;;;;;;20.47;11.27;;;;;;;;;;780232;179;920099;-79
2021/04/03 02:32:39;;;;;;;22.20;10.43;;;;;;;;;;776435;179;1327747;-79
2021/04/03 02:35:05;;;;;;;17.30;10.70;;;;;;;;;;776912;179;916016;-78
2021/04/03 02:37:31;;;;;;;25.10;13.87;;;;;;;;;;785994;179;915563;-79
2021/04/03 02:39:57;;;;;;;23.60;12.03;;;;;;;;;;778431;179;1021942;-79
2021/04/03 02:42:23;;;;;;;23.70;13.07;;;;;;;;;;776066;179;919421;-79
2021/04/03 02:44:49;;;;;;;22.97;12.40;;;;;;;;;;779934;179;901343;-78
2021/04/03 02:47:16;;;;;;;19.13;11.73;;;;;;;;;;779904;179;918623;-79
2021/04/03 02:49:42;;;;;;;24.98;11.50;;;;;;;;;;759929;179;3550968;-78
2021/04/03 02:52:07;;;;;;;19.50;9.70;;;;;;;;;;780216;179;919378;-78
2021/04/03 02:54:33;;;;;;;19.30;10.33;;;;;;;;;;774814;179;919609;-79
2021/04/03 02:56:59;;;;;;;21.03;10.60;;;;;;;;;;777519;179;919019;-78
2021/04/03 02:59:25;;;;;;;24.80;12.07;;;;;;;;;;775997;179;919202;-78
2021/04/03 03:01:51;;;;;;;18.47;10.93;;;;;;;;;;784869;179;919090;-78
2021/04/03 03:04:17;;;;;;;18.17;8.83;;;;;;;;;;776806;179;1003693;-79
2021/04/03 03:06:42;;;;;;;17.37;10.10;;;;;;;;;;778883;179;917165;-79
2021/04/03 03:09:09;;;;;;;17.30;10.33;;;;;;;;;;781907;179;914580;-78
2021/04/03 03:11:34;;;;;;;17.40;9.70;;;;;;;;;;779300;179;872864;-79
2021/04/03 03:14:00;;;;;;;18.33;9.70;;;;;;;;;;779570;179;865174;-78
2021/04/03 03:16:26;;;;;;;18.17;9.50;;;;;;;;;;780835;179;919154;-79
2021/04/03 03:18:52;;;;;;;22.10;11.73;;;;;;;;;;778372;179;918570;-78
2021/04/03 03:21:18;;;;;;;27.50;11.70;;;;;;;;;;776333;179;918209;-78
2021/04/03 03:23:43;;;;;;;23.23;10.53;;;;;;;;;;779214;179;916955;-78
2021/04/03 03:26:09;;;;;;;19.05;10.10;;;;;;;;;;770461;179;817659;-79
2021/04/03 03:28:35;;;;;;;33.33;10.77;;;;;;;;;;776853;179;919134;-78
2021/04/03 03:31:01;;;;;;;19.17;11.30;;;;;;;;;;770866;179;1397824;-78
2021/04/03 03:33:27;;;;;;;20.27;11.20;;;;;;;;;;781966;179;918776;-79
2021/04/03 03:35:53;;;;;;;20.17;9.87;;;;;;;;;;779439;178;926781;-77
2021/04/03 03:38:18;;;;;;;20.00;9.97;;;;;;;;;;778416;179;1020929;-79
2021/04/03 03:40:44;;;;;;;16.63;10.23;;;;;;;;;;780822;179;919893;-79
2021/04/03 03:43:16;;;;;;;18.63;9.83;;;;;;;;;;778634;179;919122;-79
2021/04/03 03:45:39;;;;;;;22.43;10.67;;;;;;;;;;776383;179;918357;-79
2021/04/03 03:48:05;;;;;;;24.77;13.53;;;;;;;;;;777912;179;918211;-78
2021/04/03 03:50:31;;;;;;;28.13;13.30;;;;;;;;;;779853;179;918429;-79
2021/04/03 03:52:57;;;;;;;19.47;12.03;;;;;;;;;;774154;179;1014339;-78
2021/04/03 03:55:23;;;;;;;29.07;14.57;;;;;;;;;;778357;179;919034;-78
2021/04/03 03:57:49;;;;;;;23.77;15.30;;;;;;;;;;778013;179;1507233;-79
2021/04/03 04:00:15;;;;;;;29.83;14.63;;;;;;;;;;779717;179;919493;-79
2021/04/03 04:02:40;;;;;;;25.07;13.67;;;;;;;;;;777821;179;1024294;-79
2021/04/03 04:05:06;;;;;;;29.43;14.97;;;;;;;;;;783319;179;816440;-80
2021/04/03 04:07:34;;;;;;;26.20;13.77;;;;;;;;;;777924;179;919487;-76
2021/04/03 04:09:58;;;;;;;31.83;17.60;;;;;;;;;;779312;179;918389;-79
2021/04/03 04:12:31;;;;;;;28.93;16.17;;;;;;;;;;781098;179;1021361;-79
2021/04/03 04:14:57;;;;;;;32.30;18.80;;;;;;;;;;782557;179;918555;-80
2021/04/03 04:17:22;;;;;;;34.27;16.00;;;;;;;;;;776039;179;917692;-79
2021/04/03 04:19:48;;;;;;;28.38;15.40;;;;;;;;;;777863;179;919112;-78
2021/04/03 04:22:14;;;;;;;30.83;16.60;;;;;;;;;;780999;179;1021856;-78
2021/04/03 04:24:40;;;;;;;26.30;15.60;;;;;;;;;;778867;179;918476;-78
2021/04/03 04:27:06;;;;;;;24.27;14.63;;;;;;;;;;778354;179;918595;-79
2021/04/03 04:29:32;;;;;;;39.23;21.10;;;;;;;;;;780057;179;918049;-78
2021/04/03 04:31:58;;;;;;;24.33;14.60;;;;;;;;;;775066;179;918721;-79
2021/04/03 04:34:24;;;;;;;28.07;15.93;;;;;;;;;;777187;179;874542;-79
2021/04/03 04:36:49;;;;;;;32.83;15.63;;;;;;;;;;777534;179;964588;-79
2021/04/03 04:39:15;;;;;;;37.25;17.48;;;;;;;;;;778866;179;1069084;-79
2021/04/03 04:41:41;;;;;;;30.30;17.70;;;;;;;;;;776865;179;934370;-78
2021/04/03 04:44:07;;;;;;;31.97;18.70;;;;;;;;;;774791;179;919769;-76
2021/04/03 04:46:33;;;;;;;32.43;18.40;;;;;;;;;;784815;177;918553;-75
2021/04/03 04:48:59;;;;;;;31.93;18.67;;;;;;;;;;779633;179;919469;-77
2021/04/03 04:51:25;;;;;;;28.27;14.20;;;;;;;;;;778724;179;1020007;-77
2021/04/03 04:53:50;;;;;;;30.83;16.17;;;;;;;;;;782096;179;919098;-76
2021/04/03 04:56:16;;;;;;;31.42;15.80;;;;;;;;;;777794;178;917387;-75
2021/04/03 04:58:42;;;;;;;26.93;15.50;;;;;;;;;;779610;179;918000;-75
2021/04/03 05:01:08;;;;;;;24.87;14.67;;;;;;;;;;777359;179;919199;-76
2021/04/03 05:03:34;;;;;;;25.97;13.93;;;;;;;;;;782483;176;919438;-76
2021/04/03 05:06:00;;;;;;;25.27;13.77;;;;;;;;;;775330;179;919387;-75
2021/04/03 05:08:26;;;;;;;29.77;15.10;;;;;;;;;;777284;179;916273;-74
2021/04/03 05:10:51;;;;;;;23.23;13.40;;;;;;;;;;781647;179;918148;-75
2021/04/03 05:13:17;;;;;;;21.23;12.27;;;;;;;;;;780329;179;916869;-75
2021/04/03 05:15:43;;;;;;;22.67;12.73;;;;;;;;;;775628;179;919566;-74
2021/04/03 05:18:09;;;;;;;22.13;13.05;;;;;;;;;;783937;179;920040;-72
2021/04/03 05:20:35;;;;;;;20.83;10.67;;;;;;;;;;776141;179;916242;-70
2021/04/03 05:23:00;;;;;;;25.40;10.17;;;;;;;;;;778064;179;920880;-72
2021/04/03 05:25:26;;;;;;;17.83;10.50;;;;;;;;;;779265;179;1016821;-73
2021/04/03 05:27:52;;;;;;;16.90;10.30;;;;;;;;;;777127;179;915192;-71
2021/04/03 05:30:19;;;;;;;15.60;10.20;;;;;;;;;;773778;179;923585;-72
2021/04/03 05:32:44;;;;;;;14.30;7.67;;;;;;;;;;775866;179;916431;-71
2021/04/03 05:35:11;;;;;;;10.13;6.80;;;;;;;;;;780264;179;913559;-70
2021/04/03 05:37:37;;;;;;;19.67;7.83;;;;;;;;;;777719;179;920353;-71
2021/04/03 05:40:06;;;;;;;10.97;6.47;;;;;;;;;;774775;179;1015945;-73
2021/04/03 05:42:33;;;;;;;10.90;6.27;;;;;;;;;;781490;179;919354;-72
2021/04/03 05:44:58;;;;;;;10.32;6.57;;;;;;;;;;776852;179;919627;-71
2021/04/03 05:47:24;;;;;;;10.60;6.20;;;;;;;;;;752818;179;4713377;-71
2021/04/03 05:49:49;;;;;;;11.03;5.90;;;;;;;;;;777119;179;918247;-70
2021/04/03 05:52:15;;;;;;;12.83;6.00;;;;;;;;;;778044;176;919741;-70
2021/04/03 05:54:41;;;;;;;9.17;5.80;;;;;;;;;;776983;179;918593;-70
2021/04/03 05:57:07;;;;;;;7.63;5.17;;;;;;;;;;776472;179;921465;-70
2021/04/03 05:59:33;;;;;;;10.27;6.30;;;;;;;;;;784919;179;918738;-70
2021/04/03 06:02:00;;;;;;;12.63;7.00;;;;;;;;;;779782;179;918486;-71
2021/04/03 06:04:26;;;;;;;10.00;5.83;;;;;;;;;;782128;179;699586;-70
2021/04/03 06:06:51;;;;;;;19.30;6.60;;;;;;;;;;762946;179;4404028;-71
2021/04/03 06:09:17;;;;;;;8.47;5.70;;;;;;;;;;782599;179;617062;-70
2021/04/03 06:11:43;;;;;;;12.03;6.40;;;;;;;;;;779253;179;644115;-70
2021/04/03 06:14:09;;;;;;;14.20;6.73;;;;;;;;;;782644;179;633635;-70
2021/04/03 06:16:36;;;;;;;10.60;6.17;;;;;;;;;;787710;176;615491;-73
2021/04/03 06:19:06;;;;;;;9.27;5.80;;;;;;;;;;781293;179;623238;-69
2021/04/03 06:21:32;;;;;;;10.17;6.27;;;;;;;;;;781611;179;630224;-71
2021/04/03 06:23:58;;;;;;;10.70;6.10;;;;;;;;;;783749;179;629203;-70
2021/04/03 06:26:24;;;;;;;13.47;6.77;;;;;;;;;;781799;179;698453;-69
2021/04/03 06:28:50;;;;;;;12.97;6.27;;;;;;;;;;780578;179;628815;-69
2021/04/03 06:31:17;;;;;;;15.70;7.50;;;;;;;;;;786248;179;623578;-70
2021/04/03 06:33:42;;;;;;;11.80;5.60;;;;;;;;;;777804;179;621650;-72
2021/04/03 06:36:09;;;;;;;8.50;5.77;;;;;;;;;;780426;179;627121;-71
2021/04/03 06:38:35;;;;;;;9.47;5.70;;;;;;;;;;778861;179;702438;-69
2021/04/03 06:41:06;;;;;;;9.07;5.47;;;;;;;;;;784236;179;628106;-70
2021/04/03 06:43:32;;;;;;;10.27;4.57;;;;;;;;;;778836;179;638664;-70
2021/04/03 06:45:58;;;;;;;12.03;5.63;;;;;;;;;;779640;179;624443;-71
2021/04/03 06:48:24;;;;;;;12.50;6.17;;;;;;;;;;781918;179;621358;-70
2021/04/03 06:50:53;;;;;;;12.53;6.47;;;;;;;;;;782640;179;665625;-70
2021/04/03 06:53:16;;;;;;;11.20;6.40;;;;;;;;;;775161;179;1584410;-69
2021/04/03 06:55:42;;;;;;;13.90;7.77;;;;;;;;;;781374;179;625916;-70
2021/04/03 06:58:09;;;;;;;15.70;7.93;;;;;;;;;;783205;179;630672;-71
2021/04/03 07:00:35;;;;;;;17.70;10.00;;;;;;;;;;779907;179;626897;-71
2021/04/03 07:03:00;;;;;;;19.83;9.60;;;;;;;;;;776354;179;1622689;-71
2021/04/03 07:05:35;;;;;;;18.60;9.40;;;;;;;;;;782482;179;625484;-73
2021/04/03 07:08:01;;;;;;;23.83;10.20;;;;;;;;;;783538;179;639644;-71
2021/04/03 07:10:28;;;;;;;18.50;9.10;;;;;;;;;;782287;178;623771;-71
2021/04/03 07:12:53;;;;;;;25.40;10.50;;;;;;;;;;781943;179;631565;-71
2021/04/03 07:15:19;;;;;;;17.73;10.10;;;;;;;;;;788257;179;618327;-70
2021/04/03 07:17:45;;;;;;;14.83;9.60;;;;;;;;;;784423;179;627405;-71
2021/04/03 07:20:10;;;;;;;16.40;9.30;;;;;;;;;;780904;179;640596;-72
2021/04/03 07:22:36;;;;;;;19.70;10.80;;;;;;;;;;786864;179;625496;-71
2021/04/03 07:25:02;;;;;;;18.90;9.60;;;;;;;;;;779719;179;631858;-71
2021/04/03 07:27:28;;;;;;;17.80;10.40;;;;;;;;;;781037;179;626821;-71
2021/04/03 07:29:54;;;;;;;19.02;9.35;;;;;;;;;;781880;179;627249;-71
2021/04/03 07:32:26;;;;;;;15.90;8.90;;;;;;;;;;784872;176;647635;-71
2021/04/03 07:34:52;;;;;;;14.93;9.37;;;;;;;;;;781197;179;628595;-70
2021/04/03 07:37:17;;;;;;;21.00;9.47;;;;;;;;;;780932;179;669454;-69
2021/04/03 07:39:44;;;;;;;15.80;9.93;;;;;;;;;;776279;179;1149331;-69
2021/04/03 07:42:10;;;;;;;16.17;9.40;;;;;;;;;;781827;179;739747;-70
2021/04/03 07:44:36;;;;;;;13.33;8.30;;;;;;;;;;780659;179;626848;-70
2021/04/03 07:47:08;;;;;;;21.63;9.30;;;;;;;;;;779588;179;700884;-71
2021/04/03 07:49:34;;;;;;;16.40;9.27;;;;;;;;;;774298;180;622739;-70
2021/04/03 07:52:00;;;;;;;15.57;8.60;;;;;;;;;;778563;179;721487;-70
2021/04/03 07:54:26;;;;;;;19.13;10.63;;;;;;;;;;779593;179;635726;-71
2021/04/03 07:56:52;;;;;;;13.50;8.27;;;;;;;;;;780934;179;626865;-70
2021/04/03 07:59:17;;;;;;;14.20;8.23;;;;;;;;;;783364;179;662159;-70
2021/04/03 08:01:45;;;;;;;12.35;8.65;;;;;;;;;;766454;179;2515104;-72
2021/04/03 08:04:09;;;;;;;16.20;8.70;;;;;;;;;;783510;179;630650;-71
2021/04/03 08:06:36;;;;;;;16.07;9.87;;;;;;;;;;777888;179;623578;-72
2021/04/03 08:09:03;;;;;;;14.97;9.60;;;;;;;;;;781007;179;646585;-71
2021/04/03 08:11:29;;;;;;;18.47;11.63;;;;;;;;;;779150;179;621906;-71
2021/04/03 08:13:54;;;;;;;22.00;11.07;;;;;;;;;;786066;179;625328;-71
2021/04/03 08:16:20;;;;;;;41.37;22.50;;;;;;;;;;776689;179;817427;-71
2021/04/03 08:18:46;;;;;;;15.77;10.00;;;;;;;;;;781146;179;642292;-71
2021/04/03 08:21:12;;;;;;;14.45;8.90;;;;;;;;;;787993;177;634903;-72
2021/04/03 08:23:40;;;;;;;14.20;8.83;;;;;;;;;;779225;179;720003;-74
2021/04/03 08:26:05;;;;;;;15.70;9.57;;;;;;;;;;783865;179;637526;-72
2021/04/03 08:28:30;;;;;;;26.97;14.30;;;;;;;;;;784286;179;623174;-73
2021/04/03 08:30:56;;;;;;;32.53;21.37;;;;;;;;;;782045;179;636512;-73
2021/04/03 08:33:22;;;;;;;14.37;8.67;;;;;;;;;;779525;178;630554;-73
2021/04/03 08:35:48;;;;;;;17.27;10.63;;;;;;;;;;782800;179;629366;-73
2021/04/03 08:38:14;;;;;;;12.30;8.00;;;;;;;;;;783793;179;757370;-74
2021/04/03 08:40:40;;;;;;;15.43;9.00;;;;;;;;;;780643;179;642826;-75
2021/04/03 08:43:15;;;;;;;20.42;13.43;;;;;;;;;;758037;170;2105224;-72
2021/04/03 08:45:42;;;;;;;24.17;11.73;;;;;;;;;;768904;182;622133;-71
2021/04/03 08:48:07;;;;;;;18.07;10.40;;;;;;;;;;770326;182;617991;-72
2021/04/03 08:50:33;;;;;;;22.47;13.43;;;;;;;;;;773134;180;623968;-71
2021/04/03 08:52:59;;;;;;;20.00;12.87;;;;;;;;;;763667;180;628832;-71
2021/04/03 08:55:25;;;;;;;17.60;9.70;;;;;;;;;;777137;180;616119;-72
2021/04/03 08:57:51;;;;;;;15.07;10.13;;;;;;;;;;771655;180;624217;-73
2021/04/03 09:00:17;;;;;;;16.57;9.37;;;;;;;;;;771554;180;632015;-71
2021/04/03 09:02:43;;;;;;;13.60;8.43;;;;;;;;;;775983;180;629227;-71
2021/04/03 09:05:09;;;;;;;13.83;8.20;;;;;;;;;;769002;180;652537;-71
2021/04/03 09:07:35;;;;;;;12.10;7.80;;;;;;;;;;768247;180;818848;-71
2021/04/03 09:10:03;;;;;;;11.90;8.18;;;;;;;;;;761724;180;1656915;-70
2021/04/03 09:12:29;;;;;;;11.53;7.10;;;;;;;;;;764753;183;656537;-72
2021/04/03 09:14:55;;;;;;;11.73;7.17;;;;;;;;;;772414;180;629411;-72
2021/04/03 09:17:21;;;;;;;14.30;7.10;;;;;;;;;;766816;180;633040;-73
2021/04/03 09:19:47;;;;;;;13.07;8.37;;;;;;;;;;770919;180;696736;-73
2021/04/03 09:22:13;;;;;;;12.30;8.50;;;;;;;;;;767413;180;628546;-71
2021/04/03 09:24:38;;;;;;;12.00;7.07;;;;;;;;;;766406;180;633428;-70
2021/04/03 09:27:21;;;;;;;13.60;8.80;;;;;;;;;;776251;180;643596;-69
2021/04/03 09:29:50;;;;;;;9.67;6.07;;;;;;;;;;750374;180;4428176;-68
2021/04/03 09:32:16;;;;;;;13.30;7.47;;;;;;;;;;769752;180;643067;-70
2021/04/03 09:34:41;;;;;;;23.20;8.67;;;;;;;;;;765462;180;641036;-70
2021/04/03 09:37:12;;;;;;;15.77;9.57;;;;;;;;;;769010;180;660537;-71
2021/04/03 09:39:41;;;;;;;33.70;15.33;;;;;;;;;;771289;180;613202;-72
2021/04/03 09:42:07;;;;;;;14.70;8.13;;;;;;;;;;771688;180;627309;-72
2021/04/03 09:44:36;;;;;;;18.53;9.97;;;;;;;;;;765914;180;633817;-75
2021/04/03 09:47:02;;;;;;;13.47;7.30;;;;;;;;;;768369;180;660663;-74
2021/04/03 09:49:28;;;;;;;16.00;8.70;;;;;;;;;;776268;180;623534;-73
2021/04/03 09:51:54;;;;;;;35.60;17.20;;;;;;;;;;767998;180;1099656;-73
2021/04/03 09:54:20;;;;;;;27.13;16.10;;;;;;;;;;760841;183;624396;-73
2021/04/03 09:56:47;;;;;;;14.03;10.17;;;;;;;;;;755118;183;625832;-73
2021/04/03 09:59:12;;;;;;;17.63;9.97;;;;;;;;;;768116;180;625603;-73
2021/04/03 10:01:37;;;;;;;12.57;7.93;;;;;;;;;;766361;180;740323;-73
2021/04/03 10:04:03;;;;;;;12.10;8.40;;;;;;;;;;774864;180;628427;-73
2021/04/03 10:06:29;;;;;;;12.70;7.23;;;;;;;;;;769148;180;629809;-73
2021/04/03 10:08:55;;;;;;;18.60;11.47;;;;;;;;;;774733;180;624926;-73
2021/04/03 10:11:21;;;;;;;18.83;12.67;;;;;;;;;;768663;180;629730;-71
2021/04/03 10:13:47;;;;;;;9.80;6.80;;;;;;;;;;765266;183;620744;-74
2021/04/03 10:16:13;;;;;;;7.50;4.60;;;;;;;;;;770538;180;624098;-72
2021/04/03 10:18:38;;;;;;;6.20;4.40;;;;;;;;;;772125;180;641557;-71
2021/04/03 10:21:07;;;;;;;11.27;6.23;;;;;;;;;;767413;180;621459;-71
2021/04/03 10:23:30;;;;;;;8.03;5.27;;;;;;;;;;766248;181;691539;-72
2021/04/03 10:25:56;;;;;;;12.10;7.53;;;;;;;;;;765830;180;620967;-73
2021/04/03 10:28:22;;;;;;;10.40;4.83;;;;;;;;;;772737;180;627863;-73
2021/04/03 10:30:50;;;;;;;6.90;4.93;;;;;;;;;;773840;180;627294;-71
2021/04/03 10:33:14;;;;;;;7.13;4.83;;;;;;;;;;771434;180;702964;-73
2021/04/03 10:35:40;;;;;;;43.07;7.23;;;;;;;;;;775794;180;638955;-75
2021/04/03 10:38:06;;;;;;;8.20;4.50;;;;;;;;;;766476;181;631854;-73
2021/04/03 10:40:32;;;;;;;7.93;5.50;;;;;;;;;;772405;180;629628;-73
2021/04/03 10:42:58;;;;;;;10.57;6.27;;;;;;;;;;769229;180;641528;-73
2021/04/03 10:45:24;;;;;;;16.70;6.70;;;;;;;;;;771096;180;623506;-74
2021/04/03 10:47:50;;;;;;;10.40;5.73;;;;;;;;;;766573;180;621447;-74
2021/04/03 10:50:16;;;;;;;7.17;5.17;;;;;;;;;;772991;180;640794;-73
2021/04/03 10:52:42;;;;;;;9.17;5.20;;;;;;;;;;772733;180;623345;-74
2021/04/03 10:55:08;;;;;;;11.53;6.50;;;;;;;;;;769943;181;625861;-73
2021/04/03 10:57:34;;;;;;;18.35;7.43;;;;;;;;;;764791;181;896441;-74
2021/04/03 10:59:59;;;;;;;10.57;5.87;;;;;;;;;;771346;181;628570;-73
2021/04/03 11:02:25;;;;;;;16.10;6.87;;;;;;;;;;771639;180;671386;-72
2021/04/03 11:04:51;;;;;;;12.13;5.63;;;;;;;;;;773145;179;613649;-73
2021/04/03 11:07:17;;;;;;;11.53;6.93;;;;;;;;;;776455;180;620376;-73
2021/04/03 11:09:43;;;;;;;29.03;10.77;;;;;;;;;;770246;181;625941;-73
2021/04/03 11:12:09;;;;;;;13.07;7.57;;;;;;;;;;771663;180;620301;-73
2021/04/03 11:14:35;;;;;;;7.45;5.45;;;;;;;;;;762097;180;625838;-75
2021/04/03 11:17:01;;;;;;;12.23;7.60;;;;;;;;;;772118;180;630889;-74
2021/04/03 11:19:27;;;;;;;8.13;4.78;;;;;;;;;;761531;181;627975;-74
2021/04/03 11:21:52;;;;;;;14.57;6.30;;;;;;;;;;772932;180;626999;-75
2021/04/03 11:24:18;;;;;;;15.53;6.40;;;;;;;;;;773828;180;623130;-74
2021/04/03 11:26:44;;;;;;;9.07;5.73;;;;;;;;;;770952;180;628142;-74
2021/04/03 11:29:10;;;;;;;10.80;6.07;;;;;;;;;;765104;180;626476;-74
2021/04/03 11:31:36;;;;;;;11.90;5.40;;;;;;;;;;772426;180;623657;-72
2021/04/03 11:34:02;;;;;;;17.63;6.70;;;;;;;;;;765301;183;647660;-74
2021/04/03 11:36:28;;;;;;;10.80;5.50;;;;;;;;;;773044;180;637991;-72
2021/04/03 11:38:56;;;;;;;15.43;6.60;;;;;;;;;;773145;180;646175;-74
2021/04/03 11:41:22;;;;;;;13.40;7.00;;;;;;;;;;775979;180;619146;-75
2021/04/03 11:43:48;;;;;;;13.23;7.40;;;;;;;;;;772015;180;629535;-74
2021/04/03 11:46:13;;;;;;;12.37;5.63;;;;;;;;;;769147;182;619701;-74
2021/04/03 11:48:39;;;;;;;11.13;5.87;;;;;;;;;;776161;180;648106;-78
2021/04/03 11:51:05;;;;;;;10.57;4.27;;;;;;;;;;770197;179;626026;-75
2021/04/03 11:53:31;;;;;;;9.63;5.53;;;;;;;;;;769039;180;635108;-70
2021/04/03 11:55:57;;;;;;;6.13;4.57;;;;;;;;;;763763;180;644121;-76
2021/04/03 11:58:23;;;;;;;10.00;5.27;;;;;;;;;;768113;182;633875;-70
2021/04/03 12:00:49;;;;;;;7.40;5.30;;;;;;;;;;770373;180;637617;-74
2021/04/03 12:03:14;;;;;;;8.50;6.17;;;;;;;;;;769029;181;634527;-74
2021/04/03 12:05:40;;;;;;;8.77;5.03;;;;;;;;;;767887;181;643502;-74
2021/04/03 12:08:07;;;;;;;13.97;9.50;;;;;;;;;;769487;180;628061;-73
2021/04/03 12:10:32;;;;;;;11.00;5.87;;;;;;;;;;767975;180;627519;-73
2021/04/03 12:12:58;;;;;;;10.20;6.40;;;;;;;;;;777691;180;636787;-71
2021/04/03 12:15:26;;;;;;;8.83;6.40;;;;;;;;;;770069;180;637074;-73
2021/04/03 12:17:52;;;;;;;12.00;6.87;;;;;;;;;;771243;179;721511;-73
2021/04/03 12:20:18;;;;;;;112.50;56.83;;;;;;;;;;773207;180;648254;-72
2021/04/03 12:22:44;;;;;;;17.43;8.70;;;;;;;;;;772084;180;624175;-70
2021/04/03 12:25:10;;;;;;;11.03;7.10;;;;;;;;;;769553;180;644949;-69
2021/04/03 12:27:36;;;;;;;14.83;6.90;;;;;;;;;;748190;180;5149346;-71
2021/04/03 12:30:02;;;;;;;14.40;6.23;;;;;;;;;;774387;182;623843;-74
2021/04/03 12:32:28;;;;;;;10.70;7.70;;;;;;;;;;767547;180;620469;-74
2021/04/03 12:34:54;;;;;;;12.95;5.47;;;;;;;;;;770569;180;650356;-72
2021/04/03 12:37:19;;;;;;;10.23;6.27;;;;;;;;;;772228;180;624132;-73
2021/04/03 12:39:45;;;;;;;10.23;5.70;;;;;;;;;;771476;180;641372;-73
2021/04/03 12:42:11;;;;;;;9.23;5.07;;;;;;;;;;768578;180;654803;-73
2021/04/03 12:44:37;;;;;;;10.30;5.83;;;;;;;;;;771696;180;647039;-73
2021/04/03 12:47:03;;;;;;;8.60;5.20;;;;;;;;;;767177;180;658624;-72
2021/04/03 12:49:29;;;;;;;13.80;8.80;;;;;;;;;;770312;180;616823;-72
2021/04/03 12:51:55;;;;;;;13.50;8.50;;;;;;;;;;759780;180;1957421;-72
2021/04/03 12:54:21;;;;;;;15.33;6.87;;;;;;;;;;769872;181;648067;-73
2021/04/03 12:56:46;;;;;;;19.53;12.00;;;;;;;;;;773650;180;645416;-74
2021/04/03 12:59:12;;;;;;;13.97;8.20;;;;;;;;;;770295;180;614131;-73
2021/04/03 13:01:41;;;;;;;16.83;10.53;;;;;;;;;;774571;180;636580;-73
2021/04/03 13:04:06;;;;;;;28.70;12.13;;;;;;;;;;763939;180;761501;-71
2021/04/03 13:06:32;;;;;;;17.30;9.87;;;;;;;;;;771120;180;630715;-73
2021/04/03 13:08:58;;;;;;;15.70;9.43;;;;;;;;;;772890;179;628059;-73
2021/04/03 13:11:24;;;;;;;17.00;8.50;;;;;;;;;;770879;180;669190;-71
2021/04/03 13:13:50;;;;;;;13.80;7.27;;;;;;;;;;768080;180;930844;-74
2021/04/03 13:16:16;;;;;;;19.50;11.47;;;;;;;;;;773375;179;625620;-74
2021/04/03 13:18:42;;;;;;;18.57;10.27;;;;;;;;;;774203;180;637671;-74
2021/04/03 13:21:10;;;;;;;20.60;9.53;;;;;;;;;;771240;180;656828;-73
2021/04/03 13:23:33;;;;;;;34.80;25.87;;;;;;;;;;766419;180;624069;-72
2021/04/03 13:25:59;;;;;;;221.77;98.80;;;;;;;;;;775697;180;629092;-76
2021/04/03 13:28:25;;;;;;;23.33;14.57;;;;;;;;;;770967;179;833629;-74
2021/04/03 13:30:51;;;;;;;19.60;8.00;;;;;;;;;;769017;180;629186;-72
2021/04/03 13:33:26;;;;;;;10.53;5.43;;;;;;;;;;773384;180;634200;-72
2021/04/03 13:35:51;;;;;;;11.17;5.23;;;;;;;;;;771776;182;677843;-70
2021/04/03 13:38:17;;;;;;;6.77;4.10;;;;;;;;;;771028;180;627759;-71
2021/04/03 13:40:43;;;;;;;14.67;6.17;;;;;;;;;;766408;180;625785;-70
2021/04/03 13:43:09;;;;;;;33.53;19.50;;;;;;;;;;773970;180;632833;-72
2021/04/03 13:45:35;;;;;;;15.63;8.43;;;;;;;;;;768431;180;662749;-72
2021/04/03 13:48:01;;;;;;;15.33;11.63;;;;;;;;;;771040;180;637060;-72
2021/04/03 13:50:27;;;;;;;30.57;19.17;;;;;;;;;;770365;180;614471;-72
2021/04/03 13:52:53;;;;;;;16.43;10.13;;;;;;;;;;767938;180;648146;-72
2021/04/03 13:55:19;;;;;;;13.33;7.37;;;;;;;;;;763264;180;695167;-73
2021/04/03 13:57:45;;;;;;;11.43;5.53;;;;;;;;;;767065;180;645695;-72
2021/04/03 14:00:11;;;;;;;13.47;9.23;;;;;;;;;;762857;181;634356;-72
2021/04/03 14:02:37;;;;;;;13.67;8.63;;;;;;;;;;771478;180;619907;-72
2021/04/03 14:05:03;;;;;;;9.20;5.47;;;;;;;;;;765464;180;628037;-73